Time;durP1;ratioP1;P1;durP2;ratioP2;P2;SDS_P1;SDS_P2;PMS_P1;PMS_P2;Temp;Humidity;BMP_temperature;BMP_pressure;BME280_temperature;BME280_humidity;BME280_pressure;Samples;Min_cycle;Max_cycle;Signal;HPM_P1;HPM_P2
2022/03/03 00:00:15;;;;;;;56.45;32.88;;;-0.70;99.90;;;;;;5080048;28;20028;-55
2022/03/03 00:02:42;;;;;;;57.40;30.95;;;-0.70;99.90;;;;;;5087870;28;20391;-50
2022/03/03 00:05:09;;;;;;;55.78;31.75;;;-0.80;99.90;;;;;;5091058;28;20450;-51
2022/03/03 00:07:34;;;;;;;58.50;32.00;;;-0.80;99.90;;;;;;5091421;28;20081;-53
2022/03/03 00:10:01;;;;;;;56.00;31.05;;;-0.80;99.90;;;;;;5089617;28;20020;-51
2022/03/03 00:12:27;;;;;;;59.67;31.58;;;-0.80;99.90;;;;;;5090384;28;20437;-51
2022/03/03 00:14:52;;;;;;;60.17;30.23;;;-0.80;99.90;;;;;;5071820;28;20028;-54
2022/03/03 00:17:18;;;;;;;49.40;28.35;;;-0.80;99.90;;;;;;5071584;28;20431;-52
2022/03/03 00:19:45;;;;;;;45.85;27.70;;;-0.80;99.90;;;;;;5070783;28;20028;-52
2022/03/03 00:22:11;;;;;;;52.30;27.38;;;-0.90;99.90;;;;;;5070557;28;20492;-50
2022/03/03 00:24:36;;;;;;;75.93;26.75;;;-0.90;99.90;;;;;;5070753;28;20630;-53
2022/03/03 00:27:02;;;;;;;63.05;26.42;;;-0.90;99.90;;;;;;5079303;28;20111;-51
2022/03/03 00:29:28;;;;;;;52.00;25.45;;;-0.90;99.90;;;;;;5089664;28;20031;-53
2022/03/03 00:31:54;;;;;;;58.42;26.20;;;-0.90;99.90;;;;;;5088605;28;20036;-51
2022/03/03 00:34:19;;;;;;;44.45;23.33;;;-0.90;99.90;;;;;;5089989;28;20689;-51
2022/03/03 00:36:45;;;;;;;42.03;24.15;;;-1.00;99.90;;;;;;5089495;28;20115;-52
2022/03/03 00:39:11;;;;;;;55.00;24.85;;;-0.90;99.90;;;;;;5088474;28;20043;-52
2022/03/03 00:41:36;;;;;;;40.90;24.70;;;-0.90;99.90;;;;;;5079512;28;20028;-53
2022/03/03 00:44:02;;;;;;;40.13;22.67;;;-1.00;99.90;;;;;;5081525;28;20039;-51
2022/03/03 00:46:28;;;;;;;40.97;23.65;;;-0.90;99.90;;;;;;5089699;28;20770;-53
2022/03/03 00:48:55;;;;;;;40.65;23.20;;;-0.90;99.90;;;;;;5090749;28;20041;-51
2022/03/03 00:51:21;;;;;;;41.58;23.90;;;-1.00;99.90;;;;;;5089959;28;20068;-52
2022/03/03 00:53:47;;;;;;;41.60;23.45;;;-1.00;99.90;;;;;;5089862;28;20050;-51
2022/03/03 00:56:13;;;;;;;43.20;24.02;;;-1.00;99.90;;;;;;5089612;28;20028;-50
2022/03/03 00:58:39;;;;;;;37.28;22.55;;;-1.00;99.90;;;;;;5076345;28;20123;-53
2022/03/03 01:01:05;;;;;;;40.13;22.80;;;-1.00;99.90;;;;;;5068421;28;20032;-50
2022/03/03 01:03:30;;;;;;;47.60;24.55;;;-1.00;99.90;;;;;;5053693;28;20118;-53
2022/03/03 01:05:56;;;;;;;40.38;24.35;;;-1.00;99.90;;;;;;5049762;28;20033;-51
2022/03/03 01:08:21;;;;;;;35.75;21.70;;;-1.10;99.90;;;;;;5050064;28;20524;-52
2022/03/03 01:10:47;;;;;;;38.63;23.63;;;-1.10;99.90;;;;;;5050009;28;20037;-51
2022/03/03 01:13:13;;;;;;;38.60;23.58;;;-1.10;99.90;;;;;;5054654;28;20028;-52
2022/03/03 01:15:38;;;;;;;43.10;24.13;;;-1.00;99.90;;;;;;5057425;28;20029;-51
2022/03/03 01:18:04;;;;;;;52.25;22.33;;;-1.00;99.90;;;;;;5049884;28;20029;-52
2022/03/03 01:20:30;;;;;;;37.17;23.15;;;-1.00;99.90;;;;;;5055791;28;20028;-53
2022/03/03 01:22:56;;;;;;;35.22;21.92;;;-1.00;99.90;;;;;;5053304;28;20411;-54
2022/03/03 01:25:22;;;;;;;36.30;22.83;;;-1.00;99.90;;;;;;5068246;28;20078;-52
2022/03/03 01:27:48;;;;;;;41.40;23.33;;;-1.00;99.90;;;;;;5051808;28;20029;-51
2022/03/03 01:30:14;;;;;;;40.30;23.40;;;-1.00;99.90;;;;;;5050256;28;20040;-52
2022/03/03 01:32:39;;;;;;;40.75;24.48;;;-1.00;99.90;;;;;;5063975;28;20416;-51
2022/03/03 01:35:06;;;;;;;35.20;21.48;;;-1.10;99.90;;;;;;5046156;28;20407;-54
2022/03/03 01:37:31;;;;;;;38.17;23.27;;;-1.00;99.90;;;;;;5049934;28;20040;-51
2022/03/03 01:39:57;;;;;;;51.47;22.55;;;-1.00;99.90;;;;;;5069413;28;20034;-52
2022/03/03 01:42:23;;;;;;;48.10;23.33;;;-1.00;99.90;;;;;;5047316;28;20024;-51
2022/03/03 01:44:49;;;;;;;36.72;21.52;;;-1.10;99.90;;;;;;5075729;28;20136;-49
2022/03/03 01:47:17;;;;;;;40.40;20.08;;;-1.10;99.90;;;;;;5069297;28;20036;-52
2022/03/03 01:49:44;;;;;;;34.13;20.52;;;-1.10;99.90;;;;;;5069310;28;20438;-50
2022/03/03 01:52:09;;;;;;;36.08;21.50;;;-1.10;99.90;;;;;;5074428;28;20447;-52
2022/03/03 01:54:35;;;;;;;33.75;21.45;;;-1.10;99.90;;;;;;5072376;28;20017;-52
2022/03/03 01:57:01;;;;;;;31.98;19.60;;;-1.10;99.90;;;;;;5085173;28;20040;-50
2022/03/03 01:59:27;;;;;;;35.08;21.17;;;-1.10;99.90;;;;;;5077279;28;20033;-50
2022/03/03 02:01:53;;;;;;;31.33;19.50;;;-1.10;99.90;;;;;;5067574;28;20522;-49
2022/03/03 02:04:19;;;;;;;33.67;21.33;;;-1.10;99.90;;;;;;5083790;28;20063;-49
2022/03/03 02:06:44;;;;;;;34.08;20.95;;;-1.10;99.90;;;;;;5074572;28;20491;-50
2022/03/03 02:09:10;;;;;;;33.22;20.38;;;-1.10;99.90;;;;;;5070226;28;20465;-51
2022/03/03 02:11:36;;;;;;;61.53;21.60;;;-1.20;99.90;;;;;;5069155;28;20037;-51
2022/03/03 02:14:03;;;;;;;33.63;20.63;;;-1.20;99.90;;;;;;5083686;28;20107;-50
2022/03/03 02:16:28;;;;;;;31.83;19.17;;;-1.20;99.90;;;;;;5068670;28;20473;-51
2022/03/03 02:18:54;;;;;;;27.92;19.90;;;-1.20;99.90;;;;;;5068954;28;20040;-50
2022/03/03 02:21:20;;;;;;;31.58;19.48;;;-1.20;99.90;;;;;;5068937;28;20035;-50
2022/03/03 02:23:46;;;;;;;33.28;21.33;;;-1.20;99.90;;;;;;5081492;28;20040;-49
2022/03/03 02:26:19;;;;;;;30.45;17.92;;;-1.20;99.90;;;;;;5079665;28;20066;-52
2022/03/03 02:28:46;;;;;;;31.55;18.85;;;-1.20;99.90;;;;;;5069015;28;20031;-51
2022/03/03 02:31:12;;;;;;;28.65;18.17;;;-1.20;99.90;;;;;;5075423;28;20082;-51
2022/03/03 02:33:37;;;;;;;31.80;20.63;;;-1.20;99.90;;;;;;5080275;28;20492;-52
2022/03/03 02:36:27;;;;;;;27.45;19.02;;;-1.20;99.90;;;;;;5072943;28;20110;-51
2022/03/03 02:38:55;;;;;;;34.28;18.40;;;-1.20;99.90;;;;;;5072919;28;20499;-53
2022/03/03 02:41:21;;;;;;;24.58;15.93;;;-1.10;99.90;;;;;;5073902;28;20032;-51
2022/03/03 02:43:46;;;;;;;33.30;17.40;;;-1.20;99.90;;;;;;5075129;28;20132;-50
2022/03/03 02:46:13;;;;;;;27.15;17.90;;;-1.20;99.90;;;;;;5073609;28;20032;-51
2022/03/03 02:48:39;;;;;;;26.45;17.13;;;-1.20;99.90;;;;;;5079246;28;20034;-50
2022/03/03 02:51:04;;;;;;;36.17;18.92;;;-1.20;99.90;;;;;;5076997;28;20029;-51
2022/03/03 02:53:30;;;;;;;30.40;18.73;;;-1.30;99.90;;;;;;5072231;28;20063;-52
2022/03/03 02:55:56;;;;;;;32.60;18.30;;;-1.20;99.90;;;;;;5072180;28;20555;-49
2022/03/03 02:58:21;;;;;;;30.60;17.42;;;-1.30;99.90;;;;;;5072013;28;20199;-50
2022/03/03 03:00:47;;;;;;;30.95;18.52;;;-1.30;99.90;;;;;;5079216;28;20445;-53
2022/03/03 03:03:18;;;;;;;32.00;18.13;;;-1.30;99.90;;;;;;5085121;28;20032;-51
2022/03/03 03:05:45;;;;;;;67.05;20.73;;;-1.20;99.90;;;;;;5073219;28;20728;-52
2022/03/03 03:08:11;;;;;;;31.75;18.48;;;-1.20;99.90;;;;;;5071211;28;20029;-52
2022/03/03 03:10:37;;;;;;;55.08;17.67;;;-1.40;99.90;;;;;;5090518;28;20028;-49
2022/03/03 03:13:04;;;;;;;26.30;16.70;;;-1.40;99.90;;;;;;5085744;28;20033;-50
2022/03/03 03:15:30;;;;;;;28.98;17.27;;;-1.50;99.90;;;;;;5081129;28;20073;-51
2022/03/03 03:17:55;;;;;;;31.33;17.23;;;-1.50;99.90;;;;;;5092056;28;20137;-48
2022/03/03 03:20:21;;;;;;;28.10;17.33;;;-1.40;99.90;;;;;;5058286;28;20039;-51
2022/03/03 03:22:49;;;;;;;30.40;17.23;;;-1.40;99.90;;;;;;5074699;28;20028;-51
2022/03/03 03:25:15;;;;;;;57.88;19.95;;;-1.50;99.90;;;;;;5090456;28;20074;-50
2022/03/03 03:27:42;;;;;;;32.00;18.73;;;-1.50;99.90;;;;;;5071937;28;21369;-51
2022/03/03 03:30:11;;;;;;;29.85;17.05;;;-1.50;99.90;;;;;;5080220;28;20032;-50
2022/03/03 03:32:38;;;;;;;25.92;17.42;;;-1.50;99.90;;;;;;5090038;28;20486;-50
2022/03/03 03:35:04;;;;;;;29.92;17.92;;;-1.50;99.90;;;;;;5091215;28;20618;-49
2022/03/03 03:37:31;;;;;;;30.30;17.38;;;-1.50;99.90;;;;;;5090785;28;20065;-50
2022/03/03 03:39:56;;;;;;;32.13;18.15;;;-1.50;99.90;;;;;;5091073;28;20103;-52
2022/03/03 03:42:22;;;;;;;30.52;16.38;;;-1.50;99.90;;;;;;5090221;28;20459;-50
2022/03/03 03:44:48;;;;;;;41.75;17.85;;;-1.50;99.90;;;;;;5089370;28;20039;-48
2022/03/03 03:47:13;;;;;;;29.58;18.25;;;-1.50;99.90;;;;;;5071624;28;20028;-48
2022/03/03 03:49:39;;;;;;;29.38;17.48;;;-1.40;99.90;;;;;;5075017;28;20027;-49
2022/03/03 03:52:05;;;;;;;31.02;16.10;;;-1.40;99.90;;;;;;5072723;28;20082;-51
2022/03/03 03:54:31;;;;;;;24.83;15.45;;;-1.40;99.90;;;;;;5072405;28;20356;-50
2022/03/03 03:56:56;;;;;;;30.45;16.67;;;-1.40;99.90;;;;;;5088297;28;20032;-51
2022/03/03 03:59:22;;;;;;;29.85;16.30;;;-1.40;99.90;;;;;;5072304;28;20052;-50
2022/03/03 04:01:48;;;;;;;24.83;15.90;;;-1.40;99.90;;;;;;5072099;28;20044;-50
2022/03/03 04:04:13;;;;;;;26.50;16.48;;;-1.50;99.90;;;;;;5084415;28;20515;-52
2022/03/03 04:06:40;;;;;;;26.77;16.20;;;-1.40;99.90;;;;;;5081674;28;20077;-50
2022/03/03 04:09:06;;;;;;;25.67;14.90;;;-1.40;99.90;;;;;;5071747;28;20036;-50
2022/03/03 04:11:31;;;;;;;24.73;15.27;;;-1.40;99.90;;;;;;5070766;28;20032;-50
2022/03/03 04:13:58;;;;;;;30.13;14.07;;;-1.40;99.90;;;;;;5063663;28;20513;-49
2022/03/03 04:16:24;;;;;;;36.75;14.20;;;-1.40;99.90;;;;;;5089149;28;20062;-51
2022/03/03 04:18:50;;;;;;;23.85;14.57;;;-1.50;99.90;;;;;;5090782;28;20032;-51
2022/03/03 04:21:15;;;;;;;22.33;13.75;;;-1.60;99.90;;;;;;5090639;28;20035;-50
2022/03/03 04:23:41;;;;;;;24.75;14.80;;;-1.60;99.90;;;;;;5087130;28;20040;-51
2022/03/03 04:26:07;;;;;;;24.48;13.75;;;-1.60;99.90;;;;;;5081627;28;20041;-49
2022/03/03 04:28:33;;;;;;;23.88;14.75;;;-1.60;99.90;;;;;;5077519;28;20121;-50
2022/03/03 04:30:58;;;;;;;25.48;15.65;;;-1.50;99.90;;;;;;5090156;28;20039;-50
2022/03/03 04:33:24;;;;;;;24.92;14.95;;;-1.50;99.90;;;;;;5082842;28;20443;-49
2022/03/03 04:35:50;;;;;;;22.88;13.88;;;-1.50;99.90;;;;;;5074255;28;20024;-50
2022/03/03 04:38:15;;;;;;;24.40;14.93;;;-1.50;99.90;;;;;;5078160;28;20047;-51
2022/03/03 04:40:41;;;;;;;24.55;14.70;;;-1.50;99.90;;;;;;5075605;28;20047;-51
2022/03/03 04:43:06;;;;;;;23.67;14.80;;;-1.50;99.90;;;;;;5067490;28;20440;-51
2022/03/03 04:45:32;;;;;;;25.60;14.20;;;-1.50;99.90;;;;;;5070095;28;20024;-51
2022/03/03 04:47:58;;;;;;;24.42;14.73;;;-1.40;99.90;;;;;;5070777;28;20043;-48
2022/03/03 04:50:23;;;;;;;26.23;16.20;;;-1.40;99.90;;;;;;5069920;28;20023;-49
2022/03/03 04:52:49;;;;;;;25.77;14.95;;;-1.40;99.90;;;;;;5070120;28;20032;-50
2022/03/03 04:55:14;;;;;;;24.95;14.82;;;-1.40;99.90;;;;;;5087992;28;20040;-50
2022/03/03 04:57:40;;;;;;;20.38;12.90;;;-1.40;99.90;;;;;;5085183;28;20488;-50
2022/03/03 05:00:08;;;;;;;25.25;14.00;;;-1.40;99.90;;;;;;5051712;28;20035;-51
2022/03/03 05:02:33;;;;;;;22.52;13.65;;;-1.40;99.90;;;;;;5052832;28;20111;-49
2022/03/03 05:04:59;;;;;;;21.90;13.40;;;-1.40;99.90;;;;;;5070427;28;20162;-51
2022/03/03 05:07:24;;;;;;;22.00;12.73;;;-1.40;99.90;;;;;;5070661;28;20028;-53
2022/03/03 05:09:50;;;;;;;22.85;13.13;;;-1.40;99.90;;;;;;5069297;28;20031;-53
2022/03/03 05:12:15;;;;;;;20.27;12.20;;;-1.40;99.90;;;;;;5084000;28;20031;-51
2022/03/03 05:14:41;;;;;;;21.17;13.18;;;-1.50;99.90;;;;;;5073507;28;20036;-50
2022/03/03 05:17:07;;;;;;;20.75;11.40;;;-1.50;99.90;;;;;;5069487;28;20039;-48
2022/03/03 05:19:32;;;;;;;22.45;13.98;;;-1.50;99.90;;;;;;5069921;28;20032;-49
2022/03/03 05:21:58;;;;;;;20.85;12.02;;;-1.60;99.90;;;;;;5056253;28;20039;-51
2022/03/03 05:24:23;;;;;;;20.10;12.20;;;-1.70;99.90;;;;;;5070627;28;20024;-48
2022/03/03 05:26:50;;;;;;;20.50;12.30;;;-1.70;99.90;;;;;;5080992;28;20035;-49
2022/03/03 05:29:16;;;;;;;27.20;13.43;;;-1.70;99.90;;;;;;5069252;28;20027;-51
2022/03/03 05:31:42;;;;;;;59.35;14.02;;;-1.70;99.90;;;;;;5069327;28;20103;-49
2022/03/03 05:34:08;;;;;;;21.45;12.13;;;-1.70;99.90;;;;;;5079947;28;20588;-50
2022/03/03 05:36:39;;;;;;;22.42;14.05;;;-1.70;99.90;;;;;;5089371;28;20027;-50
2022/03/03 05:39:05;;;;;;;22.63;14.60;;;-1.70;99.90;;;;;;5083726;28;20701;-50
2022/03/03 05:41:31;;;;;;;23.55;13.32;;;-1.80;99.90;;;;;;5072724;28;20028;-50
2022/03/03 05:43:58;;;;;;;22.55;13.40;;;-1.70;99.90;;;;;;5080173;28;20455;-51
2022/03/03 05:46:24;;;;;;;31.70;11.98;;;-1.70;99.90;;;;;;5069263;28;20025;-51
2022/03/03 05:48:50;;;;;;;20.17;13.30;;;-1.80;99.90;;;;;;5069795;28;20496;-49
2022/03/03 05:51:19;;;;;;;40.60;14.20;;;-1.90;99.90;;;;;;5070575;28;20070;-51
2022/03/03 05:53:45;;;;;;;23.25;13.40;;;-1.90;99.90;;;;;;5076533;28;20387;-51
2022/03/03 05:56:14;;;;;;;29.90;15.48;;;-1.90;99.90;;;;;;5083311;28;20028;-50
2022/03/03 05:58:44;;;;;;;35.92;14.27;;;-1.90;99.90;;;;;;5086425;28;20032;-50
2022/03/03 06:01:11;;;;;;;28.30;14.35;;;-1.90;99.90;;;;;;5088398;28;20032;-51
2022/03/03 06:03:37;;;;;;;22.17;13.55;;;-1.90;99.90;;;;;;5081180;28;20488;-49
2022/03/03 06:06:18;;;;;;;29.10;13.57;;;-2.10;99.90;;;;;;5072538;28;20056;-51
2022/03/03 06:09:03;;;;;;;89.88;15.30;;;-2.20;99.90;;;;;;5073410;28;20086;-52
2022/03/03 06:11:29;;;;;;;39.88;14.02;;;-2.20;99.90;;;;;;5089337;28;20042;-50
2022/03/03 06:14:06;;;;;;;29.40;14.20;;;-2.30;99.90;;;;;;5084903;28;20450;-49
2022/03/03 06:16:33;;;;;;;40.20;14.40;;;-2.30;99.90;;;;;;5073081;28;20079;-49
2022/03/03 06:18:59;;;;;;;34.28;13.95;;;-2.30;99.90;;;;;;5073312;28;20036;-50
2022/03/03 06:21:25;;;;;;;19.00;12.25;;;-2.30;99.90;;;;;;5073288;28;20025;-48
2022/03/03 06:23:51;;;;;;;33.30;11.98;;;-2.30;99.90;;;;;;5079376;28;21716;-51
2022/03/03 06:26:18;;;;;;;22.02;12.38;;;-2.20;99.90;;;;;;5078211;28;20056;-48
2022/03/03 06:28:44;;;;;;;20.98;11.25;;;-2.20;99.90;;;;;;5072984;28;20025;-52
2022/03/03 06:31:10;;;;;;;19.40;11.80;;;-2.20;99.90;;;;;;5072744;28;20036;-50
2022/03/03 06:33:36;;;;;;;25.17;12.88;;;-2.10;99.90;;;;;;5059413;28;20028;-51
2022/03/03 06:36:02;;;;;;;20.17;12.07;;;-2.10;99.90;;;;;;5092826;28;20059;-50
2022/03/03 06:38:27;;;;;;;20.77;11.52;;;-2.00;99.90;;;;;;5090918;28;20036;-50
2022/03/03 06:40:55;;;;;;;17.88;11.23;;;-2.00;99.90;;;;;;5072628;28;20039;-49
2022/03/03 06:43:20;;;;;;;21.35;10.32;;;-2.00;99.90;;;;;;5089972;28;20088;-52
2022/03/03 06:45:46;;;;;;;22.02;11.02;;;-2.00;99.90;;;;;;5092415;28;20032;-49
2022/03/03 06:48:13;;;;;;;21.52;10.98;;;-2.00;99.90;;;;;;5083614;28;20066;-50
2022/03/03 06:50:40;;;;;;;19.60;10.85;;;-2.00;99.90;;;;;;5074933;28;20112;-50
2022/03/03 06:53:09;;;;;;;22.75;11.90;;;-2.00;99.90;;;;;;5081687;28;20103;-49
2022/03/03 06:55:36;;;;;;;35.17;10.77;;;-2.00;99.90;;;;;;5072598;28;20025;-49
2022/03/03 06:58:03;;;;;;;32.95;10.57;;;-2.00;99.90;;;;;;5072403;28;20031;-49
2022/03/03 07:00:33;;;;;;;39.17;11.20;;;-2.00;99.90;;;;;;5080495;28;20380;-50
2022/03/03 07:03:04;;;;;;;22.52;10.38;;;-2.10;99.90;;;;;;5073737;28;20025;-50
2022/03/03 07:05:30;;;;;;;35.30;9.85;;;-2.20;99.90;;;;;;5072014;28;20376;-50
2022/03/03 07:07:57;;;;;;;26.67;9.80;;;-2.20;99.90;;;;;;5085548;28;20111;-48
2022/03/03 07:10:24;;;;;;;41.42;11.13;;;-2.20;99.90;;;;;;5089950;28;20015;-51
2022/03/03 07:12:55;;;;;;;19.27;10.90;;;-2.20;99.90;;;;;;5071963;28;20391;-49
2022/03/03 07:15:22;;;;;;;18.63;10.82;;;-2.20;99.90;;;;;;5075506;28;20069;-50
2022/03/03 07:18:02;;;;;;;37.40;10.57;;;-2.20;99.90;;;;;;5091435;28;20111;-50
2022/03/03 07:20:40;;;;;;;10.77;7.78;;;-2.10;99.90;;;;;;5073739;28;20051;-50
2022/03/03 07:23:29;;;;;;;10.30;6.57;;;-2.00;99.90;;;;;;5062181;28;20036;-50
2022/03/03 07:26:00;;;;;;;31.20;6.70;;;-2.00;99.90;;;;;;5078014;28;20386;-51
2022/03/03 07:28:28;;;;;;;14.82;6.97;;;-2.00;99.90;;;;;;5071931;28;20024;-50
2022/03/03 07:30:55;;;;;;;11.00;7.07;;;-2.00;99.90;;;;;;5070587;28;20492;-51
2022/03/03 07:33:31;;;;;;;13.60;7.05;;;-2.00;99.90;;;;;;5081785;28;20402;-49
2022/03/03 07:35:57;;;;;;;13.20;6.45;;;-1.90;99.90;;;;;;5092070;28;20024;-49
2022/03/03 07:38:34;;;;;;;11.02;6.60;;;-1.90;99.90;;;;;;5091450;28;20024;-50
2022/03/03 07:41:01;;;;;;;14.63;7.22;;;-1.90;99.90;;;;;;5091833;28;20411;-54
2022/03/03 07:43:27;;;;;;;18.63;7.45;;;-1.80;99.90;;;;;;5091482;28;20073;-50
2022/03/03 07:45:53;;;;;;;11.90;6.70;;;-1.90;99.90;;;;;;5091329;28;20053;-50
2022/03/03 07:48:23;;;;;;;15.10;7.70;;;-1.80;99.90;;;;;;5080848;28;20028;-49
2022/03/03 07:50:49;;;;;;;15.68;7.97;;;-1.80;99.90;;;;;;5071501;28;20021;-51
2022/03/03 07:53:15;;;;;;;12.70;8.13;;;-1.70;99.90;;;;;;5070899;28;20036;-51
2022/03/03 07:55:46;;;;;;;13.45;7.75;;;-1.70;99.90;;;;;;5071286;28;20025;-52
2022/03/03 07:58:20;;;;;;;11.25;7.28;;;-1.60;99.90;;;;;;5071350;28;20040;-52
2022/03/03 08:00:50;;;;;;;13.93;7.05;;;-1.50;99.90;;;;;;5069628;28;20086;-51
2022/03/03 08:03:19;;;;;;;20.80;8.15;;;-1.40;99.90;;;;;;5070867;28;20526;-52
2022/03/03 08:05:47;;;;;;;14.13;7.28;;;-1.40;99.90;;;;;;5070365;28;20496;-52
2022/03/03 08:08:19;;;;;;;11.23;7.43;;;-1.30;99.90;;;;;;5052973;28;20039;-51
2022/03/03 08:10:46;;;;;;;19.92;7.75;;;-1.20;99.90;;;;;;5069104;28;20116;-50
2022/03/03 08:13:14;;;;;;;12.40;8.23;;;-1.20;99.90;;;;;;5070804;28;20090;-53
2022/03/03 08:15:44;;;;;;;12.23;7.60;;;-1.20;99.90;;;;;;5054728;28;20025;-50
2022/03/03 08:18:11;;;;;;;11.63;8.10;;;-1.20;99.90;;;;;;5050770;28;20059;-52
2022/03/03 08:20:38;;;;;;;15.25;7.60;;;-1.20;99.90;;;;;;5050927;28;20511;-51
2022/03/03 08:23:05;;;;;;;16.05;6.90;;;-1.20;99.90;;;;;;5050686;28;20033;-54
2022/03/03 08:25:32;;;;;;;13.10;7.50;;;-1.20;99.90;;;;;;5050866;28;20032;-50
2022/03/03 08:27:58;;;;;;;13.77;6.80;;;-1.20;99.90;;;;;;5050790;28;20033;-51
2022/03/03 08:30:24;;;;;;;23.20;7.13;;;-1.10;99.90;;;;;;5070135;28;20033;-49
2022/03/03 08:33:28;;;;;;;13.20;6.82;;;-1.20;99.90;;;;;;5070195;28;20016;-51
2022/03/03 08:35:56;;;;;;;9.55;5.85;;;-1.20;99.90;;;;;;5049221;28;20033;-50
2022/03/03 08:38:37;;;;;;;16.48;7.53;;;-1.10;99.90;;;;;;5070141;28;20025;-50
2022/03/03 08:41:05;;;;;;;14.55;6.80;;;-1.00;99.90;;;;;;5051204;28;20052;-52
2022/03/03 08:43:33;;;;;;;7.95;5.82;;;-1.00;99.90;;;;;;5069829;28;20040;-50
2022/03/03 08:46:05;;;;;;;10.50;6.47;;;-1.10;99.90;;;;;;5068744;28;20127;-49
2022/03/03 08:48:32;;;;;;;17.75;7.75;;;-1.00;99.90;;;;;;5070030;28;20027;-50
2022/03/03 08:51:03;;;;;;;10.07;6.72;;;-1.00;99.90;;;;;;5051808;28;20032;-50
2022/03/03 08:53:29;;;;;;;10.88;6.55;;;-0.80;99.90;;;;;;5069925;28;20025;-51
2022/03/03 08:55:58;;;;;;;10.88;7.03;;;-0.80;99.90;;;;;;5068555;28;20568;-52
2022/03/03 08:58:24;;;;;;;9.10;6.60;;;-0.70;99.90;;;;;;5070163;28;20361;-53
2022/03/03 09:00:50;;;;;;;20.13;6.57;;;-0.50;99.90;;;;;;5056761;28;20489;-50
2022/03/03 09:03:21;;;;;;;38.03;7.10;;;-0.50;99.90;;;;;;5050301;28;20128;-54
2022/03/03 09:05:48;;;;;;;11.23;6.10;;;-0.40;99.90;;;;;;5050100;28;20032;-51
2022/03/03 09:08:13;;;;;;;14.02;6.30;;;-0.40;99.90;;;;;;5050069;28;20028;-54
2022/03/03 09:10:39;;;;;;;12.27;6.75;;;-0.40;99.90;;;;;;5048605;28;20025;-51
2022/03/03 09:13:05;;;;;;;16.13;7.05;;;-0.40;99.90;;;;;;5049686;28;20021;-50
2022/03/03 09:15:31;;;;;;;10.85;6.63;;;-0.40;99.90;;;;;;5049632;28;20680;-52
2022/03/03 09:17:57;;;;;;;13.75;6.55;;;-0.30;99.90;;;;;;5049752;28;20036;-53
2022/03/03 09:20:23;;;;;;;10.45;5.93;;;-0.20;99.90;;;;;;5067481;28;20108;-53
2022/03/03 09:22:48;;;;;;;16.85;7.15;;;-0.10;99.90;;;;;;5075238;28;20103;-53
2022/03/03 09:25:15;;;;;;;10.45;6.38;;;0.00;99.90;;;;;;5073866;28;20067;-50
2022/03/03 09:27:41;;;;;;;11.40;5.85;;;0.00;99.90;;;;;;5070748;28;20025;-53
2022/03/03 09:30:09;;;;;;;10.57;5.85;;;0.10;99.90;;;;;;5069599;28;20841;-51
2022/03/03 09:32:35;;;;;;;10.95;6.43;;;0.10;99.90;;;;;;5069524;28;20509;-52
2022/03/03 09:35:00;;;;;;;10.57;5.50;;;0.20;99.90;;;;;;5069567;28;20476;-52
2022/03/03 09:37:27;;;;;;;10.68;5.72;;;0.30;99.90;;;;;;5070748;28;20017;-49
2022/03/03 09:39:53;;;;;;;21.45;6.15;;;0.20;99.90;;;;;;5069626;28;20017;-52
2022/03/03 09:42:20;;;;;;;27.85;6.25;;;0.30;99.90;;;;;;5074348;28;20020;-49
2022/03/03 09:44:46;;;;;;;7.63;5.45;;;0.30;99.90;;;;;;5089853;28;20103;-53
2022/03/03 09:47:12;;;;;;;8.65;5.22;;;0.30;99.90;;;;;;5089063;28;20436;-55
2022/03/03 09:49:39;;;;;;;9.27;5.47;;;0.30;99.90;;;;;;5090535;28;20487;-49
2022/03/03 09:52:16;;;;;;;19.58;5.90;;;0.40;99.90;;;;;;5089073;28;20027;-51
2022/03/03 09:54:50;;;;;;;12.10;5.30;;;0.40;99.90;;;;;;5089735;28;20032;-51
2022/03/03 09:57:16;;;;;;;6.95;5.15;;;0.40;99.90;;;;;;5070158;28;20418;-52
2022/03/03 09:59:43;;;;;;;8.85;5.53;;;0.40;99.90;;;;;;5089492;28;20028;-52
2022/03/03 10:02:09;;;;;;;10.13;5.97;;;0.40;99.90;;;;;;5077592;28;20033;-53
2022/03/03 10:04:35;;;;;;;9.50;6.30;;;0.50;99.90;;;;;;5069390;28;20050;-50
2022/03/03 10:07:05;;;;;;;22.52;6.35;;;0.50;99.90;;;;;;5070433;28;20024;-52
2022/03/03 10:09:31;;;;;;;11.02;5.50;;;0.50;99.90;;;;;;5078966;28;20028;-52
2022/03/03 10:12:01;;;;;;;8.18;6.25;;;0.50;99.90;;;;;;5089286;28;20020;-53
2022/03/03 10:14:29;;;;;;;11.43;5.40;;;0.50;99.90;;;;;;5080906;28;20025;-52
2022/03/03 10:16:55;;;;;;;7.50;5.30;;;0.60;99.90;;;;;;5069404;28;20112;-50
2022/03/03 10:19:21;;;;;;;10.57;7.03;;;0.60;99.90;;;;;;5069598;28;20255;-51
2022/03/03 10:21:46;;;;;;;10.00;5.45;;;0.60;99.90;;;;;;5069586;28;20025;-52
2022/03/03 10:24:24;;;;;;;9.45;6.30;;;0.60;99.90;;;;;;5070048;28;20112;-51
2022/03/03 10:26:59;;;;;;;9.57;6.57;;;0.70;99.90;;;;;;5068979;28;20044;-53
2022/03/03 10:29:25;;;;;;;8.93;5.60;;;0.70;99.90;;;;;;5054645;28;20032;-51
2022/03/03 10:31:53;;;;;;;10.75;5.90;;;0.60;99.90;;;;;;5069303;28;20600;-55
2022/03/03 10:34:21;;;;;;;10.25;6.65;;;0.80;99.90;;;;;;5069026;28;20021;-51
2022/03/03 10:36:55;;;;;;;10.68;6.70;;;0.80;99.90;;;;;;5069107;28;20024;-52
2022/03/03 10:39:21;;;;;;;8.95;5.55;;;0.80;99.90;;;;;;5053530;28;20054;-51
2022/03/03 10:41:46;;;;;;;8.57;5.80;;;0.80;99.90;;;;;;5069802;28;20031;-55
2022/03/03 10:44:15;;;;;;;10.13;6.15;;;0.90;99.90;;;;;;5068754;28;20078;-51
2022/03/03 10:47:00;;;;;;;10.57;5.63;;;0.90;99.90;;;;;;5070150;28;20032;-53
2022/03/03 10:49:27;;;;;;;9.13;5.38;;;1.00;99.90;;;;;;5068601;28;20033;-51
2022/03/03 10:51:53;;;;;;;8.45;5.35;;;1.00;99.90;;;;;;5069788;28;20033;-52
2022/03/03 10:54:19;;;;;;;8.70;5.43;;;1.00;99.90;;;;;;5073217;28;20059;-51
2022/03/03 10:56:49;;;;;;;8.90;5.93;;;1.20;99.90;;;;;;5072931;28;20107;-52
2022/03/03 10:59:25;;;;;;;7.95;5.20;;;1.30;99.90;;;;;;5078392;28;20043;-51
2022/03/03 11:01:52;;;;;;;9.35;5.70;;;1.40;99.90;;;;;;5074037;28;20029;-50
2022/03/03 11:04:20;;;;;;;9.30;5.97;;;1.50;99.90;;;;;;5072317;28;20021;-51
2022/03/03 11:06:52;;;;;;;9.98;6.22;;;1.50;99.90;;;;;;5054691;28;20446;-52
2022/03/03 11:09:18;;;;;;;11.15;6.07;;;1.70;99.90;;;;;;5072505;28;20024;-55
2022/03/03 11:11:45;;;;;;;10.50;5.88;;;1.80;99.90;;;;;;5072307;28;20073;-53
2022/03/03 11:14:11;;;;;;;7.65;5.03;;;1.90;99.90;;;;;;5071938;28;20028;-53
2022/03/03 11:16:37;;;;;;;8.82;6.13;;;2.00;99.90;;;;;;5072113;28;20089;-56
2022/03/03 11:19:03;;;;;;;8.85;5.53;;;2.10;99.90;;;;;;5072125;28;20055;-52
2022/03/03 11:21:29;;;;;;;9.77;5.70;;;2.20;99.90;;;;;;5072084;28;20040;-54
2022/03/03 11:23:56;;;;;;;7.53;5.18;;;2.30;99.90;;;;;;5071645;28;20036;-52
2022/03/03 11:26:33;;;;;;;8.13;5.43;;;2.40;99.90;;;;;;5071847;28;20028;-53
2022/03/03 11:29:10;;;;;;;7.30;5.03;;;2.40;99.90;;;;;;5072302;28;20032;-52
2022/03/03 11:34:38;;;;;;;7.32;5.28;;;2.10;99.90;;;;;;5092970;22;20076;-52
2022/03/03 11:37:10;;;;;;;7.60;5.85;;;2.20;99.90;;;;;;5071066;28;20055;-52
2022/03/03 11:40:00;;;;;;;10.80;6.18;;;2.40;99.90;;;;;;5072925;28;20103;-52
2022/03/03 11:42:28;;;;;;;10.10;6.05;;;2.50;99.90;;;;;;5084940;28;20417;-51
2022/03/03 11:44:58;;;;;;;10.80;6.38;;;2.50;99.90;;;;;;5071557;28;20031;-49
2022/03/03 11:47:30;;;;;;;9.48;6.95;;;2.60;99.90;;;;;;5071001;28;20024;-53
2022/03/03 11:49:58;;;;;;;10.63;7.28;;;2.70;99.90;;;;;;5071375;28;20024;-52
2022/03/03 11:52:23;;;;;;;11.00;7.50;;;2.90;99.90;;;;;;5071005;28;20021;-50
2022/03/03 11:54:59;;;;;;;10.13;6.88;;;3.00;99.90;;;;;;5071433;28;20035;-52
2022/03/03 11:57:29;;;;;;;8.65;6.65;;;3.00;99.90;;;;;;5071123;28;20054;-51
2022/03/03 12:00:00;;;;;;;7.70;5.65;;;3.00;99.90;;;;;;5070938;28;20040;-55
2022/03/03 12:02:34;;;;;;;8.70;5.85;;;3.10;99.90;;;;;;5070511;28;20052;-52
2022/03/03 12:05:27;;;;;;;12.60;6.50;;;3.20;99.90;;;;;;5068141;28;20033;-52
2022/03/03 12:08:01;;;;;;;9.30;6.50;;;3.30;99.90;;;;;;5048854;28;20063;-54
2022/03/03 12:10:28;;;;;;;8.88;5.82;;;3.40;99.90;;;;;;5050023;28;20671;-52
2022/03/03 12:13:32;;;;;;;10.07;6.18;;;3.40;99.90;;;;;;5049965;28;20021;-55
2022/03/03 12:16:30;;;;;;;8.65;5.90;;;3.40;99.90;;;;;;5016716;28;20123;-54
2022/03/03 12:18:55;;;;;;;9.25;6.32;;;3.30;99.90;;;;;;5050794;28;20040;-54
2022/03/03 12:21:46;;;;;;;8.57;5.65;;;3.50;99.90;;;;;;5050715;28;20048;-56
2022/03/03 12:24:14;;;;;;;8.55;5.60;;;3.80;99.90;;;;;;5050145;28;20048;-52
2022/03/03 12:26:55;;;;;;;11.43;6.15;;;4.00;99.90;;;;;;5050756;28;20120;-57
2022/03/03 12:29:38;;;;;;;8.35;5.53;;;4.20;99.90;;;;;;5050046;28;20033;-55
2022/03/03 12:32:37;;;;;;;13.32;6.15;;;4.40;99.90;;;;;;5049898;28;20115;-56
2022/03/03 12:35:06;;;;;;;9.43;6.05;;;4.50;99.90;;;;;;5049648;28;20056;-52
2022/03/03 12:37:32;;;;;;;7.07;5.82;;;4.60;99.90;;;;;;5050316;28;20100;-53
2022/03/03 12:40:01;;;;;;;9.65;6.28;;;4.70;99.90;;;;;;5050190;28;20041;-52
2022/03/03 12:42:30;;;;;;;6.13;5.38;;;4.90;99.90;;;;;;5049828;28;20024;-54